createdAt,value
2022-11-30T00:01:21.180Z,94246.88
2022-11-30T00:03:48.751Z,94244.59
2022-11-30T00:06:22.863Z,94250.47
2022-11-30T00:08:52.595Z,94243.97
2022-11-30T00:11:21.263Z,94245.56
2022-11-30T00:13:48.773Z,94249.94
2022-11-30T00:16:15.813Z,94248.25
2022-11-30T00:18:42.528Z,94255.97
2022-11-30T00:21:13.206Z,94251.78
2022-11-30T00:23:41.999Z,94248.50
2022-11-30T00:26:11.788Z,94252.38
2022-11-30T00:28:39.244Z,94253.44
2022-11-30T00:31:08.839Z,94260.38
2022-11-30T00:33:36.867Z,94257.63
2022-11-30T00:36:10.888Z,94258.25
2022-11-30T00:38:37.550Z,94257.06
2022-11-30T00:41:04.216Z,94247.00
2022-11-30T00:43:31.216Z,94255.53
2022-11-30T00:45:58.493Z,94249.53
2022-11-30T00:48:25.402Z,94244.56
2022-11-30T00:50:52.748Z,94244.97
2022-11-30T00:53:20.159Z,94238.31
2022-11-30T00:55:47.367Z,94240.16
2022-11-30T00:58:14.438Z,94241.06
2022-11-30T01:00:41.660Z,94236.63
2022-11-30T01:03:08.712Z,94231.97
2022-11-30T01:05:35.871Z,94236.34
2022-11-30T01:08:04.636Z,94236.41
2022-11-30T01:10:31.591Z,94235.94
2022-11-30T01:12:58.185Z,94237.81
2022-11-30T01:15:24.778Z,94238.94
2022-11-30T01:17:51.392Z,94229.56
2022-11-30T01:20:18.191Z,94229.44
2022-11-30T01:22:44.830Z,94231.84
2022-11-30T01:25:11.604Z,94232.22
2022-11-30T01:27:38.353Z,94227.41
2022-11-30T01:30:05.674Z,94232.50
2022-11-30T01:32:32.274Z,94236.59
2022-11-30T01:34:58.889Z,94229.06
2022-11-30T01:37:25.567Z,94230.88
2022-11-30T01:39:52.137Z,94228.78
2022-11-30T01:42:20.130Z,94230.63
2022-11-30T01:44:53.381Z,94229.19
2022-11-30T01:47:27.313Z,94232.13
2022-11-30T01:50:13.166Z,94228.84
2022-11-30T01:52:50.956Z,94227.97
2022-11-30T01:55:24.310Z,94222.97
2022-11-30T01:57:55.223Z,94212.53
2022-11-30T02:00:22.063Z,94208.16
2022-11-30T02:03:03.994Z,94213.75
2022-11-30T02:05:33.188Z,94212.22
2022-11-30T02:08:00.800Z,94199.44
2022-11-30T02:10:32.235Z,94201.66
2022-11-30T02:13:17.329Z,94195.06
2022-11-30T02:15:58.525Z,94181.53
2022-11-30T02:19:03.517Z,94174.81
2022-11-30T02:21:45.337Z,94181.34
2022-11-30T02:24:20.971Z,94186.53
2022-11-30T02:27:13.916Z,94188.91
2022-11-30T02:29:43.674Z,94187.34
2022-11-30T02:32:23.234Z,94186.78
2022-11-30T02:34:51.968Z,94183.09
2022-11-30T02:37:20.409Z,94189.19
2022-11-30T02:39:47.043Z,94184.41
2022-11-30T02:42:14.395Z,94190.19
2022-11-30T02:44:45.640Z,94183.06
2022-11-30T02:47:20.375Z,94175.97
2022-11-30T02:49:54.231Z,94183.69
2022-11-30T02:52:26.040Z,94193.28
2022-11-30T02:54:54.281Z,94198.22
2022-11-30T02:57:20.955Z,94204.41
2022-11-30T02:59:47.604Z,94203.81
2022-11-30T03:02:14.157Z,94202.44
2022-11-30T03:04:40.787Z,94200.00
2022-11-30T03:07:07.442Z,94203.06
2022-11-30T03:09:34.059Z,94205.75
2022-11-30T03:12:01.191Z,94199.16
2022-11-30T03:14:27.774Z,94199.63
2022-11-30T03:16:54.351Z,94199.38
2022-11-30T03:19:21.058Z,94199.13
2022-11-30T03:21:47.666Z,94196.28
2022-11-30T03:24:14.241Z,94198.97
2022-11-30T03:26:40.826Z,94199.78
2022-11-30T03:29:07.465Z,94196.31
2022-11-30T03:31:34.179Z,94194.72
2022-11-30T03:34:00.894Z,94197.78
2022-11-30T03:36:27.548Z,94196.81
2022-11-30T03:38:54.126Z,94195.53
2022-11-30T03:41:20.695Z,94197.78
2022-11-30T03:43:47.901Z,94200.25
2022-11-30T03:46:15.132Z,94202.59
2022-11-30T03:48:41.752Z,94201.16
2022-11-30T03:51:10.397Z,94202.72
2022-11-30T03:53:37.386Z,94210.25
2022-11-30T03:56:07.322Z,94199.25
2022-11-30T03:58:34.812Z,94201.91
2022-11-30T04:01:04.275Z,94205.06
2022-11-30T04:03:31.054Z,94202.53
2022-11-30T04:05:58.630Z,94198.84
2022-11-30T04:08:26.187Z,94204.75
2022-11-30T04:10:54.315Z,94198.44
2022-11-30T04:13:22.388Z,94199.94
2022-11-30T04:15:50.465Z,94202.25
2022-11-30T04:18:19.021Z,94200.88
2022-11-30T04:20:45.911Z,94207.91
2022-11-30T04:23:13.380Z,94212.06
2022-11-30T04:25:41.791Z,94219.38
2022-11-30T04:28:09.853Z,94224.88
2022-11-30T04:30:37.930Z,94216.88
2022-11-30T04:33:05.500Z,94220.34
2022-11-30T04:35:33.058Z,94220.63
2022-11-30T04:38:01.019Z,94209.94
2022-11-30T04:40:27.648Z,94222.69
2022-11-30T04:42:54.219Z,94216.63
2022-11-30T04:45:20.813Z,94217.63
2022-11-30T04:47:47.430Z,94213.91
2022-11-30T04:50:14.070Z,94216.59
2022-11-30T04:52:40.624Z,94223.81
2022-11-30T04:55:07.629Z,94214.66
2022-11-30T04:57:34.292Z,94219.53
2022-11-30T05:00:01.932Z,94216.28
2022-11-30T05:02:30.500Z,94218.91
2022-11-30T05:04:57.063Z,94218.94
2022-11-30T05:07:23.735Z,94215.44
2022-11-30T05:09:50.527Z,94216.78
2022-11-30T05:12:17.180Z,94215.66
2022-11-30T05:14:43.880Z,94216.47
2022-11-30T05:17:10.499Z,94217.72
2022-11-30T05:19:37.083Z,94220.50
2022-11-30T05:22:03.773Z,94225.94
2022-11-30T05:24:30.370Z,94220.97
2022-11-30T05:26:57.067Z,94224.25
2022-11-30T05:29:23.663Z,94227.78
2022-11-30T05:31:50.575Z,94222.97
2022-11-30T05:34:17.352Z,94227.47
2022-11-30T05:36:44.011Z,94229.38
2022-11-30T05:39:10.665Z,94237.50
2022-11-30T05:41:37.779Z,94234.34
2022-11-30T05:44:05.322Z,94238.78
2022-11-30T05:46:32.039Z,94232.78
2022-11-30T05:48:58.701Z,94228.47
2022-11-30T05:51:25.415Z,94233.28
2022-11-30T05:53:52.050Z,94236.41
2022-11-30T05:56:20.941Z,94241.13
2022-11-30T05:58:48.180Z,94238.75
2022-11-30T06:01:22.952Z,94235.75
2022-11-30T06:03:49.689Z,94247.50
2022-11-30T06:06:16.880Z,94249.34
2022-11-30T06:08:44.275Z,94247.97
2022-11-30T06:11:11.182Z,94243.06
2022-11-30T06:13:39.572Z,94251.00
2022-11-30T06:16:07.323Z,94241.88
2022-11-30T06:18:34.672Z,94249.66
2022-11-30T06:21:03.619Z,94255.81
2022-11-30T06:23:30.785Z,94260.09
2022-11-30T06:25:57.517Z,94258.47
2022-11-30T06:28:25.044Z,94255.59
2022-11-30T06:30:51.685Z,94252.44
2022-11-30T06:33:22.805Z,94259.00
2022-11-30T06:35:49.528Z,94263.22
2022-11-30T06:38:16.154Z,94269.78
2022-11-30T06:40:42.726Z,94268.63
2022-11-30T06:43:09.342Z,94279.47
2022-11-30T06:45:36.053Z,94275.09
2022-11-30T06:48:02.749Z,94273.09
2022-11-30T06:50:29.401Z,94269.88
2022-11-30T06:52:56.772Z,94275.38
2022-11-30T06:55:24.091Z,94274.03
2022-11-30T06:57:50.896Z,94272.16
2022-11-30T07:00:18.069Z,94278.41
2022-11-30T07:02:44.834Z,94279.81
2022-11-30T07:05:11.753Z,94273.88
2022-11-30T07:07:39.067Z,94278.44
2022-11-30T07:10:06.349Z,94267.63
2022-11-30T07:12:35.044Z,94284.94
2022-11-30T07:15:01.725Z,94286.81
2022-11-30T07:17:28.334Z,94283.69
2022-11-30T07:19:54.951Z,94293.66
2022-11-30T07:22:21.510Z,94286.19
2022-11-30T07:25:06.712Z,94276.38
2022-11-30T07:27:33.284Z,94282.47
2022-11-30T07:29:59.973Z,94283.69
2022-11-30T07:32:26.606Z,94280.50
2022-11-30T07:34:53.207Z,94276.53
2022-11-30T07:37:19.878Z,94271.72
2022-11-30T07:39:46.443Z,94277.91
2022-11-30T07:42:13.062Z,94271.81
2022-11-30T07:44:39.734Z,94271.53
2022-11-30T07:47:06.275Z,94270.88
2022-11-30T07:49:32.926Z,94274.50
2022-11-30T07:51:59.514Z,94271.38
2022-11-30T07:54:26.183Z,94292.09
2022-11-30T07:56:52.877Z,94274.94
2022-11-30T07:59:19.534Z,94263.56
2022-11-30T08:01:46.345Z,94268.25
2022-11-30T08:04:14.244Z,94263.25
2022-11-30T08:06:41.211Z,94262.63
2022-11-30T08:09:07.862Z,94268.56
2022-11-30T08:11:36.078Z,94275.88
2022-11-30T08:14:03.907Z,94265.22
2022-11-30T08:16:34.375Z,94272.25
2022-11-30T08:19:00.992Z,94267.34
2022-11-30T08:21:27.552Z,94273.13
2022-11-30T08:23:56.948Z,94275.69
2022-11-30T08:26:32.953Z,94280.56
2022-11-30T08:29:01.064Z,94278.97
2022-11-30T08:31:33.420Z,94282.44
2022-11-30T08:34:04.985Z,94278.34
2022-11-30T08:36:31.996Z,94270.66
2022-11-30T08:39:00.217Z,94279.44
2022-11-30T08:41:27.428Z,94278.81
2022-11-30T08:43:54.441Z,94265.91
2022-11-30T08:49:25.476Z,94275.75
2022-11-30T08:54:46.791Z,94280.41
2022-11-30T08:57:18.613Z,94275.97
2022-11-30T08:59:45.470Z,94278.78
2022-11-30T09:02:16.944Z,94281.19
2022-11-30T09:04:43.686Z,94279.22
2022-11-30T09:07:10.365Z,94278.53
2022-11-30T09:09:37.582Z,94279.56
2022-11-30T09:12:04.383Z,94278.13
2022-11-30T09:14:31.320Z,94287.72
2022-11-30T09:16:57.908Z,94292.66
2022-11-30T09:19:25.491Z,94285.53
2022-11-30T09:21:52.710Z,94298.94
2022-11-30T09:24:20.998Z,94288.66
2022-11-30T09:26:47.742Z,94297.72
2022-11-30T09:29:14.482Z,94299.31
2022-11-30T09:31:41.148Z,94307.66
2022-11-30T09:34:10.018Z,94300.34
2022-11-30T09:36:36.712Z,94310.28
2022-11-30T09:39:06.455Z,94317.34
2022-11-30T09:41:53.318Z,94311.59
2022-11-30T09:45:00.212Z,94316.88
2022-11-30T09:47:58.432Z,94309.88
2022-11-30T09:50:30.030Z,94313.03
2022-11-30T09:53:12.235Z,94300.19
2022-11-30T09:55:43.977Z,94293.63
2022-11-30T09:58:44.931Z,94287.97
2022-11-30T10:01:17.885Z,94280.56
2022-11-30T10:03:44.801Z,94279.16
2022-11-30T10:06:28.506Z,94278.22
2022-11-30T10:09:26.331Z,94278.72
2022-11-30T10:12:15.958Z,94270.53
2022-11-30T10:14:53.897Z,94263.28
2022-11-30T10:18:10.420Z,94260.03
2022-11-30T10:20:52.102Z,94255.78
2022-11-30T10:23:18.685Z,94258.59
2022-11-30T10:26:17.847Z,94250.34
2022-11-30T10:28:52.459Z,94243.19
2022-11-30T10:31:32.940Z,94243.34
2022-11-30T10:34:15.490Z,94243.03
2022-11-30T10:36:44.630Z,94246.72
2022-11-30T10:39:22.801Z,94240.78
2022-11-30T10:42:00.307Z,94243.22
2022-11-30T10:44:33.815Z,94242.38
2022-11-30T10:47:11.745Z,94245.88
2022-11-30T10:49:43.120Z,94240.03
2022-11-30T10:52:09.886Z,94245.16
2022-11-30T10:54:37.166Z,94236.75
2022-11-30T10:57:06.615Z,94235.38
2022-11-30T10:59:44.687Z,94240.28
2022-11-30T11:02:48.169Z,94227.53
2022-11-30T11:05:26.805Z,94223.84
2022-11-30T11:08:03.002Z,94222.13
2022-11-30T11:10:49.724Z,94218.59
2022-11-30T11:13:38.478Z,94220.06
2022-11-30T11:16:08.751Z,94216.41
2022-11-30T11:18:36.803Z,94219.84
2022-11-30T11:21:07.905Z,94213.69
2022-11-30T11:23:40.562Z,94216.19
2022-11-30T11:26:22.922Z,94208.47
2022-11-30T11:28:53.214Z,94209.09
2022-11-30T11:31:44.143Z,94223.41
2022-11-30T11:34:50.897Z,94223.97
2022-11-30T11:37:29.028Z,94225.66
2022-11-30T11:40:05.918Z,94222.63
2022-11-30T11:42:45.427Z,94224.38
2022-11-30T11:45:22.011Z,94220.53
2022-11-30T11:48:05.218Z,94231.91
2022-11-30T11:51:05.596Z,94222.47
2022-11-30T11:53:25.529Z,94220.88
2022-11-30T11:55:57.412Z,94211.22
2022-11-30T11:58:47.688Z,94215.22
2022-11-30T12:01:39.885Z,94222.81
2022-11-30T12:04:18.572Z,94223.19
2022-11-30T12:06:46.613Z,94234.44
2022-11-30T12:09:22.469Z,94230.44
2022-11-30T12:11:49.825Z,94235.75
2022-11-30T12:14:19.104Z,94233.50
2022-11-30T12:17:08.503Z,94236.44
2022-11-30T12:19:45.487Z,94232.03
2022-11-30T12:22:38.935Z,94237.06
2022-11-30T12:25:36.026Z,94239.66
2022-11-30T12:28:33.646Z,94237.00
2022-11-30T12:31:18.099Z,94243.41
2022-11-30T12:33:53.867Z,94236.50
2022-11-30T12:36:25.185Z,94247.66
2022-11-30T12:38:58.883Z,94240.69
2022-11-30T12:41:42.078Z,94244.56
2022-11-30T12:44:28.643Z,94237.50
2022-11-30T12:47:26.610Z,94230.34
2022-11-30T12:50:21.428Z,94245.16
2022-11-30T12:53:12.712Z,94242.03
2022-11-30T12:55:39.320Z,94247.69
2022-11-30T12:58:33.841Z,94245.41
2022-11-30T13:01:44.269Z,94250.44
2022-11-30T13:04:13.908Z,94245.84
2022-11-30T13:06:45.890Z,94237.91
2022-11-30T13:09:28.256Z,94244.22
2022-11-30T13:12:02.001Z,94245.34
2022-11-30T13:14:31.039Z,94237.59
2022-11-30T13:17:06.819Z,94242.03
2022-11-30T13:19:49.970Z,94241.09
2022-11-30T13:22:43.845Z,94246.47
2022-11-30T13:25:59.810Z,94240.88
2022-11-30T13:28:33.564Z,94241.88
2022-11-30T13:31:04.566Z,94246.19
2022-11-30T13:33:33.896Z,94239.41
2022-11-30T13:36:05.592Z,94239.91
2022-11-30T13:38:37.826Z,94247.06
2022-11-30T13:41:07.635Z,94240.50
2022-11-30T13:43:44.277Z,94250.28
2022-11-30T13:46:12.019Z,94227.31
2022-11-30T13:48:41.749Z,94228.59
2022-11-30T13:51:08.980Z,94236.03
2022-11-30T13:53:38.783Z,94230.22
2022-11-30T13:56:21.666Z,94225.56
2022-11-30T13:59:33.138Z,94233.28
2022-11-30T14:02:44.346Z,94227.09
2022-11-30T14:05:13.710Z,94228.06
2022-11-30T14:07:40.388Z,94209.22
2022-11-30T14:10:32.946Z,94208.28
2022-11-30T14:13:03.782Z,94203.38
2022-11-30T14:15:36.118Z,94203.94
2022-11-30T14:18:07.874Z,94206.44
2022-11-30T14:20:42.880Z,94202.97
2022-11-30T14:23:17.425Z,94194.59
2022-11-30T14:25:52.687Z,94193.91
2022-11-30T14:28:24.162Z,94197.53
2022-11-30T14:30:51.632Z,94197.66
2022-11-30T14:34:00.591Z,94196.78
2022-11-30T14:36:35.386Z,94203.16
2022-11-30T14:39:02.212Z,94203.38
2022-11-30T14:41:31.021Z,94207.88
2022-11-30T14:44:15.706Z,94217.59
2022-11-30T14:46:42.436Z,94205.19
2022-11-30T14:49:16.857Z,94219.69
2022-11-30T14:51:58.969Z,94219.09
2022-11-30T14:54:43.849Z,94229.72
2022-11-30T14:57:22.682Z,94235.66
2022-11-30T14:59:53.288Z,94230.34
2022-11-30T15:02:31.599Z,94231.91
2022-11-30T15:04:59.487Z,94239.22
2022-11-30T15:07:27.680Z,94247.66
2022-11-30T15:10:03.768Z,94232.31
2022-11-30T15:12:31.372Z,94240.97
2022-11-30T15:15:19.456Z,94245.47
2022-11-30T15:17:53.502Z,94240.75
2022-11-30T15:20:27.154Z,94236.09
2022-11-30T15:22:56.979Z,94247.88
2022-11-30T15:25:28.891Z,94234.25
2022-11-30T15:27:55.998Z,94230.72
2022-11-30T15:30:22.771Z,94234.94
2022-11-30T15:32:52.432Z,94227.44
2022-11-30T15:35:21.967Z,94237.88
2022-11-30T15:37:49.101Z,94237.06
2022-11-30T15:40:23.189Z,94241.97
2022-11-30T15:42:50.669Z,94233.91
2022-11-30T15:45:21.010Z,94252.72
2022-11-30T15:47:48.412Z,94250.88
2022-11-30T15:50:26.944Z,94245.81
2022-11-30T15:52:57.149Z,94248.56
2022-11-30T15:55:50.875Z,94243.75
2022-11-30T15:58:47.604Z,94242.00
2022-11-30T16:01:20.578Z,94250.75
2022-11-30T16:03:56.886Z,94255.94
2022-11-30T16:06:35.638Z,94249.84
2022-11-30T16:09:24.412Z,94257.38
2022-11-30T16:11:57.103Z,94271.66
2022-11-30T16:14:23.765Z,94254.81
2022-11-30T16:16:53.158Z,94265.09
2022-11-30T16:19:20.637Z,94262.03
2022-11-30T16:21:49.051Z,94261.50
2022-11-30T16:24:16.453Z,94269.03
2022-11-30T16:26:50.870Z,94256.88
2022-11-30T16:29:18.211Z,94258.44
2022-11-30T16:31:45.088Z,94253.88
2022-11-30T16:34:11.904Z,94254.06
2022-11-30T16:36:39.055Z,94252.66
2022-11-30T16:39:06.618Z,94258.41
2022-11-30T16:41:35.135Z,94262.00
2022-11-30T16:44:02.228Z,94265.44
2022-11-30T16:46:31.420Z,94263.72
2022-11-30T16:48:58.211Z,94255.00
2022-11-30T16:51:34.591Z,94264.50
2022-11-30T16:54:01.235Z,94263.75
2022-11-30T16:56:27.948Z,94260.75
2022-11-30T16:58:54.732Z,94259.34
2022-11-30T17:01:33.266Z,94257.31
2022-11-30T17:04:26.153Z,94263.88
2022-11-30T17:06:58.748Z,94256.06
2022-11-30T17:09:29.895Z,94260.28
2022-11-30T17:11:56.519Z,94264.19
2022-11-30T17:14:23.230Z,94263.41
2022-11-30T17:16:50.009Z,94260.72
2022-11-30T17:19:16.746Z,94264.56
2022-11-30T17:21:44.875Z,94261.78
2022-11-30T17:24:12.290Z,94264.50
2022-11-30T17:26:39.050Z,94258.09
2022-11-30T17:29:05.832Z,94260.13
2022-11-30T17:31:33.061Z,94260.59
2022-11-30T17:33:59.713Z,94264.03
2022-11-30T17:36:27.092Z,94258.50
2022-11-30T17:38:53.805Z,94257.22
2022-11-30T17:41:21.989Z,94264.72
2022-11-30T17:43:49.561Z,94259.25
2022-11-30T17:46:18.118Z,94263.97
2022-11-30T17:48:45.927Z,94257.78
2022-11-30T17:51:12.789Z,94265.13
2022-11-30T17:53:41.196Z,94268.81
2022-11-30T17:56:14.572Z,94274.63
2022-11-30T17:58:44.183Z,94266.53
2022-11-30T18:01:26.047Z,94263.50
2022-11-30T18:03:54.216Z,94265.47
2022-11-30T18:06:21.245Z,94257.69
2022-11-30T18:08:47.893Z,94265.88
2022-11-30T18:11:20.522Z,94271.16
2022-11-30T18:13:48.734Z,94273.53
2022-11-30T18:16:18.243Z,94271.66
2022-11-30T18:18:47.992Z,94268.72
2022-11-30T18:21:17.632Z,94273.72
2022-11-30T18:23:44.348Z,94271.22
2022-11-30T18:26:14.082Z,94281.50
2022-11-30T18:28:40.768Z,94268.00
2022-11-30T18:31:07.699Z,94272.25
2022-11-30T18:33:35.486Z,94273.88
2022-11-30T18:36:07.588Z,94277.59
2022-11-30T18:38:37.954Z,94265.06
2022-11-30T18:41:05.371Z,94276.19
2022-11-30T18:43:33.598Z,94267.31
2022-11-30T18:46:08.610Z,94265.13
2022-11-30T18:48:36.180Z,94254.63
2022-11-30T18:51:24.412Z,94258.97
2022-11-30T18:53:59.992Z,94267.94
2022-11-30T18:56:28.893Z,94272.88
2022-11-30T18:59:01.003Z,94270.91
2022-11-30T19:01:29.045Z,94273.97
2022-11-30T19:03:58.511Z,94266.97
2022-11-30T19:06:28.428Z,94284.78
2022-11-30T19:08:55.737Z,94279.31
2022-11-30T19:11:22.737Z,94270.44
2022-11-30T19:13:54.588Z,94276.81
2022-11-30T19:16:21.335Z,94284.97
2022-11-30T19:18:48.821Z,94276.41
2022-11-30T19:21:17.673Z,94286.31
2022-11-30T19:23:45.121Z,94291.09
2022-11-30T19:26:13.716Z,94286.34
2022-11-30T19:28:42.354Z,94289.84
2022-11-30T19:31:13.398Z,94280.50
2022-11-30T19:33:41.777Z,94287.91
2022-11-30T19:36:17.323Z,94293.50
2022-11-30T19:38:58.201Z,94280.78
2022-11-30T19:41:33.808Z,94286.44
2022-11-30T19:44:04.646Z,94285.72
2022-11-30T19:46:37.268Z,94287.69
2022-11-30T19:49:22.609Z,94300.09
2022-11-30T19:52:22.614Z,94288.31
2022-11-30T19:55:11.271Z,94296.16
2022-11-30T19:57:56.526Z,94290.38
2022-11-30T20:00:23.319Z,94280.81
2022-11-30T20:02:50.284Z,94287.91
2022-11-30T20:05:18.094Z,94278.69
2022-11-30T20:07:44.741Z,94291.59
2022-11-30T20:10:15.363Z,94283.38
2022-11-30T20:12:42.047Z,94292.28
2022-11-30T20:15:14.581Z,94283.97
2022-11-30T20:17:41.180Z,94288.69
2022-11-30T20:20:07.960Z,94292.72
2022-11-30T20:22:34.524Z,94287.28
2022-11-30T20:25:01.161Z,94284.94
2022-11-30T20:27:27.825Z,94278.53
2022-11-30T20:29:55.640Z,94290.53
2022-11-30T20:32:23.204Z,94287.44
2022-11-30T20:34:50.090Z,94286.94
2022-11-30T20:37:18.122Z,94293.84
2022-11-30T20:39:46.194Z,94289.47
2022-11-30T20:42:13.228Z,94298.50
2022-11-30T20:44:39.901Z,94292.78
2022-11-30T20:47:06.621Z,94289.94
2022-11-30T20:49:33.212Z,94302.28
2022-11-30T20:51:59.768Z,94309.22
2022-11-30T20:54:29.494Z,94310.50
2022-11-30T20:56:58.674Z,94308.81
2022-11-30T20:59:26.802Z,94313.75
2022-11-30T21:01:55.368Z,94312.84
2022-11-30T21:04:24.580Z,94310.34
2022-11-30T21:06:51.476Z,94304.75
2022-11-30T21:09:19.764Z,94302.94
2022-11-30T21:11:47.534Z,94303.94
2022-11-30T21:14:14.590Z,94311.63
2022-11-30T21:16:41.567Z,94306.59
2022-11-30T21:19:10.688Z,94316.66
2022-11-30T21:21:37.456Z,94310.94
2022-11-30T21:24:07.698Z,94299.16
2022-11-30T21:26:37.350Z,94311.06
2022-11-30T21:29:11.451Z,94302.78
2022-11-30T21:31:38.661Z,94302.44
2022-11-30T21:34:05.394Z,94293.19
2022-11-30T21:36:32.514Z,94298.63
2022-11-30T21:39:06.689Z,94299.19
2022-11-30T21:41:36.187Z,94302.66
2022-11-30T21:44:03.811Z,94293.75
2022-11-30T21:46:30.508Z,94297.84
2022-11-30T21:48:57.220Z,94293.00
2022-11-30T21:51:27.268Z,94295.34
2022-11-30T21:53:57.255Z,94298.69
2022-11-30T21:56:30.860Z,94297.97
2022-11-30T21:58:57.753Z,94298.88
2022-11-30T22:01:33.115Z,94300.06
2022-11-30T22:04:02.076Z,94296.25
2022-11-30T22:06:30.247Z,94300.41
2022-11-30T22:09:03.100Z,94276.22
2022-11-30T22:11:30.880Z,94281.75
2022-11-30T22:13:57.506Z,94283.72
2022-11-30T22:16:29.968Z,94279.75
2022-11-30T22:19:02.380Z,94274.13
2022-11-30T22:21:30.644Z,94280.75
2022-11-30T22:23:59.316Z,94278.94
2022-11-30T22:26:45.457Z,94283.63
2022-11-30T22:29:12.058Z,94271.50
2022-11-30T22:31:41.502Z,94262.00
2022-11-30T22:34:08.823Z,94263.25
2022-11-30T22:36:38.014Z,94265.13
2022-11-30T22:39:11.115Z,94273.97
2022-11-30T22:41:39.275Z,94271.81
2022-11-30T22:44:06.256Z,94261.09
2022-11-30T22:46:35.303Z,94255.56
2022-11-30T22:49:03.886Z,94259.69
2022-11-30T22:51:32.745Z,94254.97
2022-11-30T22:54:00.042Z,94254.97
2022-11-30T22:56:32.688Z,94259.03
2022-11-30T22:59:00.933Z,94253.81
2022-11-30T23:01:28.826Z,94256.09
2022-11-30T23:03:56.870Z,94265.19
2022-11-30T23:06:24.557Z,94259.78
2022-11-30T23:08:52.505Z,94265.22
2022-11-30T23:11:22.511Z,94264.38
2022-11-30T23:13:49.581Z,94257.66
2022-11-30T23:16:16.859Z,94262.94
2022-11-30T23:18:50.806Z,94260.06
2022-11-30T23:21:20.717Z,94243.47
2022-11-30T23:23:47.853Z,94239.47
2022-11-30T23:26:17.406Z,94249.63
2022-11-30T23:28:46.430Z,94249.88
2022-11-30T23:31:34.128Z,94241.66
2022-11-30T23:34:04.841Z,94236.59
2022-11-30T23:36:32.492Z,94229.88
2022-11-30T23:39:02.431Z,94242.81
2022-11-30T23:41:29.098Z,94228.94
2022-11-30T23:43:56.020Z,94244.97
2022-11-30T23:46:22.957Z,94246.44
2022-11-30T23:48:49.776Z,94259.28
2022-11-30T23:51:16.391Z,94247.81
2022-11-30T23:53:43.055Z,94264.50
2022-11-30T23:56:16.493Z,94244.66
2022-11-30T23:58:43.183Z,94255.59
